Time;durP1;ratioP1;P1;durP2;ratioP2;P2;SDS_P1;SDS_P2;PMS_P1;PMS_P2;Temp;Humidity;BMP_temperature;BMP_pressure;BME280_temperature;BME280_humidity;BME280_pressure;Samples;Min_cycle;Max_cycle;Signal;HPM_P1;HPM_P2
2023/07/15 00:01:09;;;;;;;4.30;2.80;;;;;;;;;;4987174;28;20639;-73
2023/07/15 00:03:36;;;;;;;5.05;2.67;;;;;;;;;;4991721;28;20085;-73
2023/07/15 00:06:05;;;;;;;6.05;2.90;;;;;;;;;;4986652;28;20026;-73
2023/07/15 00:08:31;;;;;;;5.45;2.35;;;;;;;;;;4988149;28;20037;-73
2023/07/15 00:10:57;;;;;;;6.97;2.90;;;;;;;;;;4985420;28;20129;-73
2023/07/15 00:13:24;;;;;;;8.50;2.80;;;;;;;;;;4988371;28;20030;-72
2023/07/15 00:15:53;;;;;;;10.40;3.15;;;;;;;;;;4986510;28;20486;-73
2023/07/15 00:18:19;;;;;;;5.97;2.83;;;;;;;;;;4984745;28;20038;-73
2023/07/15 00:20:45;;;;;;;4.43;2.33;;;;;;;;;;4994625;28;20037;-73
2023/07/15 00:23:17;;;;;;;5.70;2.88;;;;;;;;;;4984528;28;20031;-73
2023/07/15 00:25:44;;;;;;;7.07;2.70;;;;;;;;;;4991606;28;20030;-73
2023/07/15 00:28:10;;;;;;;6.50;2.90;;;;;;;;;;4988275;28;20033;-73
2023/07/15 00:30:36;;;;;;;7.28;2.65;;;;;;;;;;4983090;28;20037;-73
2023/07/15 00:33:03;;;;;;;3.05;2.38;;;;;;;;;;4983498;28;20035;-73
2023/07/15 00:35:30;;;;;;;4.20;2.60;;;;;;;;;;4990645;28;20034;-73
2023/07/15 00:37:57;;;;;;;4.57;2.50;;;;;;;;;;4984850;28;20049;-73
2023/07/15 00:40:24;;;;;;;5.32;2.33;;;;;;;;;;4984857;28;20073;-73
2023/07/15 00:43:28;;;;;;;5.93;2.90;;;20.50;99.90;;;;;;4985199;28;20037;-73
2023/07/15 00:46:12;;;;;;;6.70;2.60;;;;;;;;;;4983977;28;20062;-73
2023/07/15 00:48:39;;;;;;;6.85;2.78;;;;;;;;;;4988635;28;20043;-73
2023/07/15 00:51:05;;;;;;;7.25;2.50;;;;;;;;;;4983393;28;20038;-73
2023/07/15 00:53:31;;;;;;;4.20;2.53;;;;;;;;;;4983253;28;20106;-73
2023/07/15 00:55:57;;;;;;;6.70;2.72;;;;;;;;;;4989819;28;20031;-73
2023/07/15 00:58:23;;;;;;;3.60;2.35;;;;;;;;;;4986076;28;20049;-73
2023/07/15 01:00:50;;;;;;;6.18;2.58;;;;;;;;;;4989289;28;20081;-73
2023/07/15 01:03:16;;;;;;;6.13;2.78;;;;;;;;;;4984152;28;20035;-73
2023/07/15 01:05:42;;;;;;;4.45;2.05;;;;;;;;;;4980063;28;20210;-73
2023/07/15 01:08:08;;;;;;;4.75;2.45;;;;;;;;;;4985488;28;20093;-73
2023/07/15 01:10:34;;;;;;;3.45;2.15;;;;;;;;;;4990261;28;20034;-73
2023/07/15 01:13:00;;;;;;;5.97;2.53;;;;;;;;;;4988804;28;20356;-73
2023/07/15 01:15:26;;;;;;;7.13;2.63;;;;;;;;;;4990347;28;20034;-73
2023/07/15 01:17:52;;;;;;;3.00;2.33;;;;;;;;;;4993066;28;20379;-73
2023/07/15 01:20:22;;;;;;;4.55;2.40;;;;;;;;;;4990077;28;20093;-72
2023/07/15 01:22:48;;;;;;;7.53;2.50;;;;;;;;;;4997909;28;20027;-73
2023/07/15 01:25:14;;;;;;;9.73;2.63;;;;;;;;;;4987677;28;20049;-72
2023/07/15 01:27:40;;;;;;;8.32;2.88;;;;;;;;;;4995846;28;20045;-73
2023/07/15 01:30:06;;;;;;;4.85;2.30;;;;;;;;;;4997101;28;20038;-73
2023/07/15 01:32:32;;;;;;;4.43;2.25;;;;;;;;;;4988403;28;20471;-73
2023/07/15 01:34:58;;;;;;;5.07;2.47;;;;;;;;;;4990022;28;20374;-73
2023/07/15 01:37:24;;;;;;;4.80;2.03;;;;;;;;;;4992544;28;20244;-73
2023/07/15 01:39:50;;;;;;;5.95;2.30;;;;;;;;;;4988618;28;20384;-73
2023/07/15 01:42:17;;;;;;;4.75;2.63;;;;;;;;;;4991277;28;20058;-73
2023/07/15 01:44:43;;;;;;;3.53;2.15;;;;;;;;;;4992344;28;20029;-73
2023/07/15 01:47:10;;;;;;;8.88;2.13;;;;;;;;;;4991095;28;20042;-73
2023/07/15 01:49:36;;;;;;;3.55;2.00;;;;;;;;;;4990735;28;20219;-73
2023/07/15 01:52:02;;;;;;;6.65;2.25;;;;;;;;;;4989802;28;20034;-73
2023/07/15 01:54:28;;;;;;;3.78;2.05;;;;;;;;;;4990968;28;20034;-73
2023/07/15 01:56:55;;;;;;;4.10;2.10;;;;;;;;;;4992590;28;20026;-73
2023/07/15 01:59:21;;;;;;;8.32;2.00;;;;;;;;;;4990862;28;20041;-73
2023/07/15 02:01:47;;;;;;;6.30;2.20;;;;;;;;;;4986253;28;20386;-73
2023/07/15 02:04:13;;;;;;;6.30;2.00;;;;;;;;;;4995249;28;20534;-73
2023/07/15 02:06:39;;;;;;;4.20;2.45;;;;;;;;;;4989354;28;20082;-73
2023/07/15 02:09:07;;;;;;;4.38;1.83;;;;;;;;;;4989702;28;20061;-73
2023/07/15 02:11:34;;;;;;;4.18;1.95;;;;;;;;;;4986746;28;20030;-73
2023/07/15 02:14:00;;;;;;;3.97;1.85;;;;;;;;;;4993160;28;20034;-74
2023/07/15 02:16:27;;;;;;;3.83;1.65;;;;;;;;;;4996167;28;20268;-73
2023/07/15 02:18:53;;;;;;;5.45;1.88;;;;;;;;;;4991986;28;20138;-73
2023/07/15 02:21:19;;;;;;;9.65;2.33;;;;;;;;;;4988780;28;20114;-73
2023/07/15 02:23:45;;;;;;;4.78;2.05;;;;;;;;;;4987838;28;20054;-73
2023/07/15 02:26:12;;;;;;;8.07;2.15;;;;;;;;;;4990288;28;20364;-73
2023/07/15 02:28:38;;;;;;;3.53;1.80;;;;;;;;;;4988708;28;20042;-73
2023/07/15 02:31:04;;;;;;;4.75;2.22;;;;;;;;;;4983757;28;20052;-73
2023/07/15 02:33:30;;;;;;;3.85;1.70;;;;;;;;;;4990015;28;20086;-73
2023/07/15 02:35:56;;;;;;;4.05;1.77;;;;;;;;;;4990531;28;20073;-73
2023/07/15 02:38:22;;;;;;;6.00;2.10;;;;;;;;;;4988640;28;20066;-73
2023/07/15 02:40:49;;;;;;;3.13;1.70;;;;;;;;;;4990129;28;20049;-74
2023/07/15 02:43:15;;;;;;;7.55;2.28;;;;;;;;;;4985605;28;20396;-73
2023/07/15 02:45:41;;;;;;;4.63;1.77;;;;;;;;;;4988301;28;20475;-73
2023/07/15 02:48:07;;;;;;;6.07;2.33;;;;;;;;;;4987606;28;20369;-73
2023/07/15 02:50:33;;;;;;;3.72;1.98;;;;;;;;;;4992526;28;20038;-72
2023/07/15 02:52:59;;;;;;;3.08;2.00;;;;;;;;;;4990878;28;20026;-73
2023/07/15 02:55:25;;;;;;;6.10;2.40;;;;;;;;;;4992264;28;20486;-73
2023/07/15 02:57:51;;;;;;;6.95;2.75;;;;;;;;;;4988767;28;20030;-73
2023/07/15 03:00:17;;;;;;;6.45;1.90;;;;;;;;;;4987743;28;20046;-73
2023/07/15 03:02:50;;;;;;;5.03;2.22;;;;;;;;;;4990948;28;20062;-74
2023/07/15 03:05:16;;;;;;;3.55;1.98;;;;;;;;;;4975788;28;20448;-73
2023/07/15 03:07:44;;;;;;;4.65;1.85;;;;;;;;;;4990552;28;20070;-73
2023/07/15 03:10:12;;;;;;;5.07;1.85;;;;;;;;;;4992118;28;20026;-74
2023/07/15 03:12:38;;;;;;;6.18;2.00;;;;;;;;;;4988133;28;20047;-73
2023/07/15 03:15:04;;;;;;;8.32;2.22;;;;;;;;;;4987348;28;20038;-73
2023/07/15 03:17:35;;;;;;;6.35;2.20;;;;;;;;;;4988459;28;20043;-73
2023/07/15 03:20:04;;;;;;;5.18;1.95;;;;;;;;;;4989249;28;20045;-73
2023/07/15 03:22:31;;;;;;;4.63;2.28;;;;;;;;;;4985072;28;20029;-73
2023/07/15 03:24:57;;;;;;;11.35;2.60;;;;;;;;;;4997727;28;20054;-73
2023/07/15 03:27:23;;;;;;;6.30;1.80;;;;;;;;;;4992969;28;20117;-74
2023/07/15 03:29:50;;;;;;;3.17;1.90;;;;;;;;;;4988305;28;20105;-73
2023/07/15 03:32:16;;;;;;;8.98;2.63;;;;;;;;;;4989945;28;20027;-73
2023/07/15 03:34:42;;;;;;;6.85;2.35;;;;;;;;;;4990657;28;20031;-73
2023/07/15 03:37:09;;;;;;;4.80;2.05;;;;;;;;;;4989271;28;20467;-73
2023/07/15 03:39:34;;;;;;;3.55;1.92;;;;;;;;;;4984360;28;20069;-73
2023/07/15 03:42:01;;;;;;;4.80;2.13;;;;;;;;;;4992193;28;20128;-73
2023/07/15 03:44:27;;;;;;;3.40;1.85;;;;;;;;;;4989292;28;20096;-73
2023/07/15 03:46:57;;;;;;;4.05;1.80;;;;;;;;;;4990762;28;20137;-73
2023/07/15 03:49:23;;;;;;;8.35;2.03;;;;;;;;;;4987999;28;20121;-73
2023/07/15 03:51:49;;;;;;;7.25;1.88;;;;;;;;;;4991983;28;20113;-73
2023/07/15 03:54:15;;;;;;;6.30;1.85;;;;;;;;;;4982051;28;20432;-73
2023/07/15 03:56:41;;;;;;;5.70;2.20;;;;;;;;;;4990150;28;20045;-73
2023/07/15 03:59:07;;;;;;;7.03;2.17;;;;;;;;;;4988252;28;20133;-73
2023/07/15 04:01:35;;;;;;;5.57;2.08;;;;;;;;;;4978424;28;20178;-73
2023/07/15 04:04:08;;;;;;;6.47;2.38;;;;;;;;;;4987712;28;20062;-73
2023/07/15 04:06:34;;;;;;;3.95;2.38;;;;;;;;;;4990765;28;20046;-73
2023/07/15 04:09:00;;;;;;;4.93;2.20;;;;;;;;;;4988854;28;20144;-73
2023/07/15 04:11:26;;;;;;;5.90;2.75;;;;;;;;;;4988089;28;20045;-73
2023/07/15 04:13:52;;;;;;;5.55;2.30;;;;;;;;;;4985227;28;20043;-73
2023/07/15 04:16:18;;;;;;;6.20;2.00;;;;;;;;;;4974630;28;20501;-73
2023/07/15 04:18:44;;;;;;;17.92;2.60;;;;;;;;;;4989044;28;20035;-73
2023/07/15 04:21:10;;;;;;;3.72;2.10;;;;;;;;;;4989495;28;20032;-73
2023/07/15 04:23:36;;;;;;;7.20;2.33;;;;;;;;;;4989691;28;20041;-73
2023/07/15 04:26:02;;;;;;;6.00;2.60;;;;;;;;;;4995427;28;20050;-73
2023/07/15 04:28:28;;;;;;;4.22;2.20;;;;;;;;;;4987952;28;20046;-73
2023/07/15 04:30:54;;;;;;;9.00;2.08;;;;;;;;;;4988418;28;20030;-71
2023/07/15 04:33:22;;;;;;;8.05;2.55;;;;;;;;;;4989746;28;20407;-72
2023/07/15 04:35:48;;;;;;;6.82;2.40;;;;;;;;;;4988876;28;20026;-72
2023/07/15 04:38:14;;;;;;;6.30;2.63;;;;;;;;;;4988935;28;20113;-72
2023/07/15 04:40:40;;;;;;;5.85;2.42;;;;;;;;;;4990106;28;20034;-73
2023/07/15 04:43:06;;;;;;;7.75;2.75;;;;;;;;;;4990863;28;20372;-72
2023/07/15 04:45:33;;;;;;;3.72;2.20;;;;;;;;;;4986123;28;20035;-72
2023/07/15 04:47:59;;;;;;;8.65;2.60;;;;;;;;;;4987272;28;20069;-72
2023/07/15 04:50:25;;;;;;;5.35;2.20;;;;;;;;;;4979304;28;20043;-73
2023/07/15 04:52:51;;;;;;;5.72;2.10;;;;;;;;;;4989391;28;20506;-73
2023/07/15 04:55:18;;;;;;;8.48;2.63;;;;;;;;;;4988987;28;20030;-73
2023/07/15 04:57:44;;;;;;;8.60;2.85;;;;;;;;;;4988347;28;20030;-73
2023/07/15 05:00:10;;;;;;;3.33;1.85;;;;;;;;;;4977950;28;20364;-72
2023/07/15 05:02:37;;;;;;;4.97;2.05;;;;;;;;;;4978021;28;20022;-76
2023/07/15 05:05:04;;;;;;;5.28;2.50;;;;;;;;;;4980917;28;20038;-75
2023/07/15 05:07:30;;;;;;;4.47;2.58;;;;;;;;;;4980803;28;20121;-76
2023/07/15 05:09:56;;;;;;;6.57;2.83;;;;;;;;;;4989528;28;20030;-76
2023/07/15 05:12:26;;;;;;;4.82;2.53;;;;;;;;;;4985287;28;20042;-76
2023/07/15 05:14:52;;;;;;;7.05;2.22;;;;;;;;;;4988543;28;20023;-75
2023/07/15 05:17:18;;;;;;;33.10;22.98;;;;;;;;;;4979057;28;20043;-77
2023/07/15 05:19:44;;;;;;;5.53;2.90;;;;;;;;;;4976275;28;20031;-78
2023/07/15 05:22:10;;;;;;;8.10;4.50;;;;;;;;;;4987993;28;20081;-76
2023/07/15 05:24:36;;;;;;;8.40;2.33;;;;;;;;;;4988377;28;20034;-77
2023/07/15 05:27:02;;;;;;;5.85;2.60;;;;;;;;;;4988349;28;20034;-77
2023/07/15 05:29:28;;;;;;;4.72;2.38;;;;;;;;;;4990087;28;20057;-77
2023/07/15 05:31:54;;;;;;;7.70;2.55;;;;;;;;;;4976530;28;20522;-78
2023/07/15 05:34:20;;;;;;;10.70;2.60;;;;;;;;;;4985157;28;20038;-80
2023/07/15 05:36:46;;;;;;;6.20;2.10;;;;;;;;;;4982509;28;20109;-79
2023/07/15 05:39:13;;;;;;;3.25;1.85;;;;;;;;;;4980552;28;20575;-80
2023/07/15 05:41:39;;;;;;;9.43;2.03;;;;;;;;;;4977544;28;20458;-79
2023/07/15 05:44:06;;;;;;;8.65;2.17;;;;;;;;;;4987184;28;20482;-79
2023/07/15 05:46:32;;;;;;;4.28;2.28;;;;;;;;;;4984234;28;20452;-78
2023/07/15 05:48:58;;;;;;;4.60;2.47;;;;;;;;;;4976929;28;20038;-82
2023/07/15 05:51:25;;;;;;;14.80;8.93;;;;;;;;;;4981344;28;20049;-76
2023/07/15 05:53:51;;;;;;;8.05;4.45;;;;;;;;;;4985638;28;20480;-75
2023/07/15 05:56:17;;;;;;;7.85;2.58;;;;;;;;;;4988942;28;20365;-77
2023/07/15 05:58:43;;;;;;;4.63;2.08;;;;;;;;;;4987183;28;20039;-71
2023/07/15 06:01:09;;;;;;;6.50;2.40;;;;;;;;;;4985448;28;20708;-75
2023/07/15 06:03:35;;;;;;;8.60;3.10;;;;;;;;;;4986664;28;20492;-73
2023/07/15 06:06:02;;;;;;;4.10;2.10;;;;;;;;;;4966052;28;20082;-74
2023/07/15 06:08:28;;;;;;;5.60;2.20;;;;;;;;;;4984704;28;20046;-74
2023/07/15 06:10:54;;;;;;;8.30;2.63;;;;;;;;;;4987517;28;20503;-73
2023/07/15 06:13:20;;;;;;;5.85;2.38;;;;;;;;;;4981490;28;20554;-74
2023/07/15 06:15:52;;;;;;;4.57;2.17;;;;;;;;;;4982102;28;20035;-74
2023/07/15 06:18:18;;;;;;;10.40;2.60;;;;;;;;;;4980907;28;20523;-74
2023/07/15 06:20:47;;;;;;;6.90;2.25;;;;;;;;;;4987225;28;20134;-76
2023/07/15 06:23:13;;;;;;;4.30;2.28;;;;;;;;;;4992216;28;20018;-76
2023/07/15 06:25:39;;;;;;;8.00;2.75;;;;;;;;;;4989344;28;20027;-75
2023/07/15 06:28:05;;;;;;;4.07;2.42;;;;;;;;;;4990702;28;20045;-76
2023/07/15 06:30:31;;;;;;;3.60;2.20;;;;;;;;;;4989608;28;20077;-76
2023/07/15 06:32:57;;;;;;;3.72;2.15;;;;;;;;;;4983632;28;20045;-75
2023/07/15 06:35:23;;;;;;;3.42;2.20;;;;;;;;;;4992673;28;20117;-73
2023/07/15 06:37:50;;;;;;;7.82;2.20;;;;;;;;;;4990910;28;20080;-76
2023/07/15 06:40:17;;;;;;;6.03;2.40;;;;;;;;;;4989696;28;20027;-77
2023/07/15 06:42:46;;;;;;;9.30;2.30;;;;;;;;;;5003826;28;20034;-75
2023/07/15 06:45:12;;;;;;;4.05;2.28;;;;;;;;;;4990729;28;20118;-76
2023/07/15 06:47:38;;;;;;;4.90;2.17;;;;;;;;;;4990511;28;20038;-76
2023/07/15 06:50:05;;;;;;;7.75;2.33;;;;;;;;;;4986294;28;20034;-77
2023/07/15 06:52:31;;;;;;;5.13;2.22;;;;;;;;;;4988402;28;20092;-78
2023/07/15 06:54:57;;;;;;;4.00;2.35;;;;;;;;;;4986308;28;20073;-79
2023/07/15 06:57:23;;;;;;;5.40;2.22;;;;;;;;;;4980688;28;20106;-78
2023/07/15 06:59:49;;;;;;;4.97;2.35;;;;;;;;;;4987265;28;20039;-76
2023/07/15 07:02:15;;;;;;;4.35;1.80;;;;;;;;;;4983946;28;20026;-75
2023/07/15 07:04:41;;;;;;;3.90;1.90;;;;;;;;;;4982599;28;20038;-75
2023/07/15 07:07:07;;;;;;;10.10;2.60;;;;;;;;;;4979660;28;20053;-75
2023/07/15 07:09:33;;;;;;;3.17;2.08;;;;;;;;;;4979976;28;20070;-75
2023/07/15 07:11:59;;;;;;;2.40;1.70;;;;;;;;;;4984982;28;20092;-73
2023/07/15 07:14:25;;;;;;;5.00;2.13;;;;;;;;;;4987289;28;20041;-74
2023/07/15 07:16:51;;;;;;;4.43;2.08;;;;;;;;;;4980368;28;20047;-75
2023/07/15 07:19:17;;;;;;;5.75;2.38;;;;;;;;;;4984000;28;20034;-75
2023/07/15 07:21:43;;;;;;;3.17;2.38;;;;;;;;;;4983959;28;20077;-76
2023/07/15 07:24:10;;;;;;;4.35;1.92;;;;;;;;;;4988661;28;20109;-82
2023/07/15 07:26:36;;;;;;;7.93;2.10;;;;;;;;;;4991967;28;20041;-77
2023/07/15 07:29:02;;;;;;;4.15;1.67;;;;;;;;;;4991745;28;20026;-78
2023/07/15 07:31:28;;;;;;;4.72;1.77;;;;;;;;;;4979719;28;20039;-78
2023/07/15 07:33:54;;;;;;;7.25;1.80;;;;;;;;;;4980874;28;20527;-80
2023/07/15 07:36:20;;;;;;;23.00;15.00;;;;;;;;;;4989899;28;20043;-77
2023/07/15 07:38:46;;;;;;;14.75;10.30;;;;;;;;;;4985371;28;20046;-77
2023/07/15 07:41:13;;;;;;;4.13;2.35;;;;;;;;;;4990821;28;20042;-75
2023/07/15 07:43:39;;;;;;;3.22;1.70;;;;;;;;;;4987961;28;20431;-75
2023/07/15 07:46:07;;;;;;;4.97;1.50;;;;;;;;;;4986822;28;20126;-75
2023/07/15 07:48:33;;;;;;;5.82;1.55;;;;;;;;;;4986132;28;20411;-76
2023/07/15 07:50:59;;;;;;;4.32;1.40;;;;;;;;;;5002284;28;20039;-76
2023/07/15 07:53:25;;;;;;;2.35;1.17;;;;;;;;;;4990072;28;20034;-76
2023/07/15 07:55:51;;;;;;;4.40;1.20;;;;;;;;;;4987936;28;20396;-76
2023/07/15 07:58:18;;;;;;;3.55;1.20;;;;;;;;;;4991696;28;20038;-76
2023/07/15 08:00:44;;;;;;;7.07;1.50;;;;;;;;;;4985604;28;20034;-76
2023/07/15 08:03:10;;;;;;;1.67;1.00;;;;;;;;;;4978319;28;20392;-76
2023/07/15 08:05:43;;;;;;;5.40;1.33;;;;;;;;;;4986829;28;20085;-75
2023/07/15 08:08:10;;;;;;;3.65;2.03;;;;;;;;;;4983695;28;20128;-75
2023/07/15 08:10:36;;;;;;;5.80;2.40;;;;;;;;;;4985850;28;20062;-75
2023/07/15 08:13:03;;;;;;;6.07;2.10;;;;;;;;;;4991296;28;20499;-76
2023/07/15 08:15:30;;;;;;;4.85;1.77;;;;;;;;;;4982763;28;20035;-75
2023/07/15 08:17:56;;;;;;;3.08;1.45;;;;;;;;;;4988496;28;20070;-76
2023/07/15 08:20:22;;;;;;;2.70;0.90;;;;;;;;;;4985995;28;20053;-76
2023/07/15 08:22:48;;;;;;;4.18;1.63;;;;;;;;;;4986125;28;20033;-75
2023/07/15 08:25:14;;;;;;;6.05;1.15;;;;;;;;;;4986966;28;20037;-75
2023/07/15 08:27:40;;;;;;;3.60;1.40;;;;;;;;;;4988327;28;20050;-76
2023/07/15 08:30:07;;;;;;;3.60;1.40;;;;;;;;;;4982249;28;20034;-76
2023/07/15 08:32:33;;;;;;;2.58;1.02;;;;;;;;;;4980305;28;20380;-76
2023/07/15 08:35:05;;;;;;;1.77;1.00;;;;;;;;;;4983421;28;20121;-75
2023/07/15 08:37:32;;;;;;;3.10;1.10;;;;;;;;;;4986998;28;20041;-76
2023/07/15 08:39:58;;;;;;;1.92;1.00;;;;;;;;;;4986111;28;20046;-76
2023/07/15 08:42:24;;;;;;;3.90;0.90;;;;;;;;;;4986864;28;20041;-76
2023/07/15 08:44:51;;;;;;;3.78;1.15;;;;;;;;;;4988460;28;20040;-76
2023/07/15 08:47:19;;;;;;;2.17;0.98;;;;;;;;;;4989076;28;20128;-76
2023/07/15 08:49:45;;;;;;;3.28;1.17;;;;;;;;;;4989035;28;20022;-75
2023/07/15 08:52:11;;;;;;;2.38;0.90;;;;;;;;;;4986733;28;20038;-75
2023/07/15 08:54:38;;;;;;;3.53;1.10;;;;;;;;;;4991421;28;20517;-75
2023/07/15 08:57:05;;;;;;;3.38;1.00;;;;;;;;;;4980624;28;20039;-75
2023/07/15 08:59:31;;;;;;;3.40;0.90;;;;;;;;;;4976543;28;20506;-75
2023/07/15 09:01:59;;;;;;;3.13;1.10;;;;;;;;;;4981839;28;20439;-75
2023/07/15 09:04:25;;;;;;;2.53;0.70;;;;;;;;;;4989225;28;20054;-76
2023/07/15 09:06:54;;;;;;;3.15;1.08;;;;;;;;;;4986758;28;20053;-76
2023/07/15 09:09:30;;;;;;;1.73;1.00;;;;;;;;;;4986905;28;20498;-76
2023/07/15 09:11:59;;;;;;;3.88;1.08;;;;;;;;;;4986664;28;20035;-76
2023/07/15 09:14:25;;;;;;;5.68;1.38;;;;;;;;;;4987851;28;20120;-76
2023/07/15 09:16:56;;;;;;;2.85;1.20;;;;;;;;;;4981068;28;20133;-76
2023/07/15 09:19:22;;;;;;;1.77;1.02;;;;;;;;;;4988615;28;20038;-76
2023/07/15 09:21:52;;;;;;;3.05;0.90;;;;;;;;;;4983980;28;20074;-77
2023/07/15 09:24:19;;;;;;;2.53;1.08;;;;;;;;;;4990905;28;20105;-76
2023/07/15 09:27:03;;;;;;;0.95;0.80;;;;;;;;;;4985262;28;20065;-77
2023/07/15 09:29:29;;;;;;;6.90;5.95;;;;;;;;;;4978318;28;20038;-76
2023/07/15 09:31:55;;;;;;;7.25;5.35;;;;;;;;;;4988097;28;20034;-76
2023/07/15 09:34:22;;;;;;;2.00;1.63;;;;;;;;;;4988362;28;20022;-80
2023/07/15 09:36:48;;;;;;;4.22;1.23;;;;;;;;;;4993369;28;20045;-78
2023/07/15 09:39:19;;;;;;;1.27;0.85;;;;;;;;;;4985747;28;20069;-79
2023/07/15 09:41:58;;;;;;;0.70;0.57;;;;;;;;;;4990565;28;20035;-77
2023/07/15 09:44:54;;;;;;;2.92;1.00;;;;;;;;;;4992746;28;20038;-77
2023/07/15 09:47:24;;;;;;;1.58;0.70;;;;;;;;;;4979353;28;20061;-77
2023/07/15 09:49:50;;;;;;;2.00;0.98;;;;;;;;;;4983967;28;20033;-79
2023/07/15 09:52:16;;;;;;;3.63;1.05;;;;;;;;;;4990226;28;20061;-79
2023/07/15 09:54:43;;;;;;;5.47;1.60;;;;;;;;;;4988089;28;20041;-77
2023/07/15 09:57:17;;;;;;;6.70;1.42;;;;;;;;;;5003292;28;20037;-74
2023/07/15 09:59:46;;;;;;;1.48;0.75;;;;;;;;;;4998815;28;20495;-84
2023/07/15 10:02:23;;;;;;;4.57;1.33;;;;;;;;;;4978174;28;20085;-82
2023/07/15 10:04:50;;;;;;;3.58;1.23;;;;;;;;;;4986922;28;20094;-81
2023/07/15 10:07:16;;;;;;;1.52;0.93;;;;;;;;;;4986359;28;20542;-83
2023/07/15 10:09:42;;;;;;;1.27;0.70;;;;;;;;;;4990339;28;20182;-79
2023/07/15 10:12:09;;;;;;;2.55;0.88;;;;;;;;;;4992180;28;20443;-84
2023/07/15 10:14:36;;;;;;;3.53;1.33;;;;;;;;;;4989341;28;20038;-80
2023/07/15 10:17:10;;;;;;;6.97;3.67;;;;;;;;;;4991794;28;20107;-78
2023/07/15 10:19:43;;;;;;;5.15;1.65;;;;;;;;;;4987631;28;20050;-83
2023/07/15 10:22:10;;;;;;;3.72;1.52;;;;;;;;;;4992020;28;20049;-77
2023/07/15 10:24:36;;;;;;;2.42;1.05;;;;;;;;;;4988779;28;20026;-78
2023/07/15 10:27:03;;;;;;;4.10;1.17;;;;;;;;;;4987515;28;20030;-79
2023/07/15 10:29:32;;;;;;;1.73;1.05;;;;;;;;;;4990142;28;20030;-78
2023/07/15 10:32:08;;;;;;;3.95;1.00;;;;;;;;;;4990051;28;20479;-78
2023/07/15 10:34:35;;;;;;;3.08;0.93;;;;;;;;;;4992363;28;20145;-81
2023/07/15 10:37:06;;;;;;;2.08;1.10;;;;;;;;;;4991022;28;20052;-80
2023/07/15 10:39:32;;;;;;;1.25;0.90;;;;;;;;;;4991722;28;20357;-82
2023/07/15 10:42:06;;;;;;;4.32;2.30;;;;;;;;;;4985511;28;20487;-88
2023/07/15 10:44:38;;;;;;;2.50;1.65;;;;;;;;;;4990456;28;20042;-85
2023/07/15 10:47:05;;;;;;;4.35;1.27;;;;;;;;;;4982423;28;20038;-88
2023/07/15 10:49:31;;;;;;;3.00;1.25;;;;;;;;;;4990996;28;20133;-91
2023/07/15 10:51:58;;;;;;;2.65;0.98;;;;;;;;;;4986878;28;20030;-91
2023/07/15 10:54:26;;;;;;;2.00;1.13;;;;;;;;;;4988168;28;20121;-86
2023/07/15 10:56:52;;;;;;;3.88;1.23;;;;;;;;;;4970249;28;20042;-84
2023/07/15 10:59:18;;;;;;;5.10;0.90;;;;;;;;;;4991222;28;20434;-92
2023/07/15 11:01:44;;;;;;;2.63;1.10;;;;;;;;;;4981905;28;20022;-92
2023/07/15 11:04:10;;;;;;;5.00;1.10;;;;;;;;;;4986772;28;20045;-88
2023/07/15 11:06:37;;;;;;;6.38;1.38;;;;;;;;;;4984371;28;20498;-88
2023/07/15 11:09:19;;;;;;;3.80;1.42;;;;;;;;;;4990324;28;20038;-83
2023/07/15 11:11:46;;;;;;;5.93;3.75;;;;;;;;;;4989296;28;20034;-82
2023/07/15 11:14:22;;;;;;;2.28;1.17;;;;;;;;;;4971760;28;20034;-78
2023/07/15 11:16:52;;;;;;;2.22;0.98;;;;;;;;;;4990347;28;20121;-77
2023/07/15 11:19:18;;;;;;;1.73;1.00;;;;;;;;;;4982010;28;20034;-78
2023/07/15 11:21:44;;;;;;;2.53;0.98;;;;;;;;;;4988092;28;20034;-79
2023/07/15 11:24:14;;;;;;;6.28;1.17;;;;;;;;;;4983015;28;20042;-75
2023/07/15 11:26:41;;;;;;;2.97;1.27;;;;;;;;;;4987537;28;20034;-78
2023/07/15 11:29:14;;;;;;;3.55;0.80;;;;;;;;;;4987835;28;20050;-78
2023/07/15 11:31:41;;;;;;;3.47;0.90;;;;;;;;;;4983311;28;20441;-80
2023/07/15 11:34:09;;;;;;;2.38;1.10;;;;;;;;;;4988221;28;20034;-79
2023/07/15 11:36:36;;;;;;;1.83;1.00;;;;;;;;;;4987486;28;20022;-75
2023/07/15 11:39:04;;;;;;;1.23;0.88;;;;;;;;;;4991766;28;20026;-76
2023/07/15 11:41:32;;;;;;;2.35;1.00;;;;;;;;;;4991064;28;20032;-76
2023/07/15 11:43:59;;;;;;;4.53;0.82;;;;;;;;;;4991851;28;20041;-76
2023/07/15 11:46:25;;;;;;;2.15;1.15;;;;;;;;;;4982398;28;20062;-75
2023/07/15 11:48:51;;;;;;;2.45;1.20;;;;;;;;;;4979964;28;20064;-75
2023/07/15 11:51:21;;;;;;;2.25;0.95;;;;;;;;;;4990154;28;20110;-76
2023/07/15 11:53:47;;;;;;;1.83;1.05;;;;;;;;;;4990785;28;20053;-76
2023/07/15 11:56:31;;;;;;;1.63;0.80;;;;;;;;;;4990816;28;20038;-76
2023/07/15 11:58:57;;;;;;;1.45;1.13;;;;;;;;;;4978164;28;20061;-75
2023/07/15 12:01:27;;;;;;;2.35;1.02;;;;;;;;;;4981287;28;20045;-76
2023/07/15 12:03:53;;;;;;;1.98;1.08;;;;;;;;;;4989287;28;20396;-76
2023/07/15 12:06:20;;;;;;;3.35;0.80;;;;;;;;;;4986554;28;20046;-76
2023/07/15 12:09:11;;;;;;;1.73;1.23;;;28.50;99.90;;;;;;4972808;28;20520;-75
2023/07/15 12:11:37;;;;;;;2.72;1.10;;;;;;;;;;4985561;28;20038;-75
2023/07/15 12:14:04;;;;;;;7.05;1.20;;;;;;;;;;4991089;28;20037;-75
2023/07/15 12:16:31;;;;;;;2.45;1.40;;;;;;;;;;4970384;28;20043;-76
2023/07/15 12:18:58;;;;;;;3.40;1.40;;;;;;;;;;4990983;28;20077;-75
2023/07/15 12:21:24;;;;;;;2.30;0.90;;;;;;;;;;4985654;28;20041;-75
2023/07/15 12:23:50;;;;;;;2.72;1.02;;;;;;;;;;4987905;28;20108;-75
2023/07/15 12:26:17;;;;;;;1.95;1.05;;;;;;;;;;4988726;28;20070;-75
2023/07/15 12:28:43;;;;;;;2.10;0.90;;;;;;;;;;4989954;28;20042;-76
2023/07/15 12:31:09;;;;;;;3.92;1.15;;;;;;;;;;4985196;28;20034;-75
2023/07/15 12:33:35;;;;;;;2.50;1.20;;;;;;;;;;4988472;28;20057;-75
2023/07/15 12:36:02;;;;;;;2.08;1.00;;;;;;;;;;4986866;28;20248;-75
2023/07/15 12:38:28;;;;;;;5.95;1.00;;;;;;;;;;4988885;28;20065;-75
2023/07/15 12:40:55;;;;;;;3.03;1.33;;;;;;;;;;4987477;28;20034;-75
2023/07/15 12:43:23;;;;;;;1.90;1.08;;;;;;;;;;4979824;28;20042;-75
2023/07/15 12:45:49;;;;;;;3.10;1.10;;;;;;;;;;4989720;28;20026;-75
2023/07/15 12:48:15;;;;;;;3.15;1.13;;;;;;;;;;4988279;28;20050;-75
2023/07/15 12:50:41;;;;;;;3.58;1.40;;;;;;;;;;4989426;28;20097;-75
2023/07/15 12:53:07;;;;;;;5.57;1.58;;;;;;;;;;4990740;28;20121;-75
2023/07/15 12:55:33;;;;;;;3.13;1.20;;;;;;;;;;4989794;28;20061;-75
2023/07/15 12:58:00;;;;;;;3.47;1.13;;;;;;;;;;4988875;28;20038;-75
2023/07/15 13:00:26;;;;;;;5.28;1.40;;;;;;;;;;5004362;28;20038;-75
2023/07/15 13:02:52;;;;;;;1.80;1.02;;;;;;;;;;4989627;28;20034;-75
2023/07/15 13:05:18;;;;;;;2.72;1.30;;;;;;;;;;4990402;28;20097;-75
2023/07/15 13:07:44;;;;;;;6.22;0.93;;;;;;;;;;4987836;28;20054;-76
2023/07/15 13:10:10;;;;;;;1.70;0.90;;;;;;;;;;5006092;28;20105;-75
2023/07/15 13:12:36;;;;;;;2.30;1.30;;;;;;;;;;4998947;28;20110;-75
2023/07/15 13:15:02;;;;;;;3.03;1.40;;;;;;;;;;4983232;28;20077;-75
2023/07/15 13:17:28;;;;;;;2.35;1.00;;;;;;;;;;4986486;28;20031;-76
2023/07/15 13:19:54;;;;;;;4.03;1.52;;;;;;;;;;4982327;28;20134;-75
2023/07/15 13:22:21;;;;;;;4.15;1.80;;;;;;;;;;4988479;28;20042;-75
2023/07/15 13:24:47;;;;;;;3.63;1.15;;;;;;;;;;4988544;28;20427;-75
2023/07/15 13:27:14;;;;;;;3.75;1.73;;;;;;;;;;4990888;28;20047;-76
2023/07/15 13:29:39;;;;;;;3.72;1.30;;;;;;;;;;4983011;28;20030;-74
2023/07/15 13:32:06;;;;;;;4.25;1.20;;;;;;;;;;4984020;28;20404;-76
2023/07/15 13:34:32;;;;;;;8.18;1.20;;;;;;;;;;4978079;28;20109;-75
2023/07/15 13:36:58;;;;;;;1.45;1.00;;;;;;;;;;4990533;28;20109;-74
2023/07/15 13:39:36;;;;;;;2.38;1.00;;;;;;;;;;4981574;28;20026;-74
2023/07/15 13:42:12;;;;;;;3.08;1.30;;;;;;;;;;4980803;28;20096;-75
2023/07/15 13:44:38;;;;;;;3.95;1.83;;;;;;;;;;4990830;28;20041;-75
2023/07/15 13:47:05;;;;;;;4.22;1.23;;;;;;;;;;4989604;28;20045;-75
2023/07/15 13:49:31;;;;;;;3.00;1.50;;;;;;;;;;4987746;28;20037;-75
2023/07/15 13:51:58;;;;;;;5.05;1.60;;;;;;;;;;4977932;28;20284;-75
2023/07/15 13:54:24;;;;;;;4.00;1.38;;;;;;;;;;4989759;28;20031;-75
2023/07/15 13:56:50;;;;;;;2.10;1.10;;;;;;;;;;4986695;28;20035;-75
2023/07/15 13:59:17;;;;;;;3.63;1.30;;;;;;;;;;4972629;28;20503;-76
2023/07/15 14:01:44;;;;;;;1.83;1.27;;;;;;;;;;4982942;28;20032;-75
2023/07/15 14:04:10;;;;;;;2.80;1.35;;;;;;;;;;4976796;28;20041;-76
2023/07/15 14:06:36;;;;;;;3.45;1.25;;;;;;;;;;4978386;28;20026;-75
2023/07/15 14:09:03;;;;;;;5.90;1.80;;;;;;;;;;4976336;28;20074;-78
2023/07/15 14:11:29;;;;;;;3.33;1.52;;;;;;;;;;4971329;28;20030;-77
2023/07/15 14:13:57;;;;;;;3.95;1.50;;;;;;;;;;4973169;28;20042;-77
2023/07/15 14:16:23;;;;;;;5.22;1.85;;;;;;;;;;4972532;28;20057;-76
2023/07/15 14:18:49;;;;;;;6.53;4.38;;;;;;;;;;4975664;28;20069;-85
2023/07/15 14:21:15;;;;;;;10.55;7.15;;;;;;;;;;4982879;28;20034;-83
2023/07/15 14:23:41;;;;;;;6.63;1.85;;;;;;;;;;4982444;28;20062;-77
2023/07/15 14:26:07;;;;;;;3.42;1.40;;;;;;;;;;4983123;28;20629;-83
2023/07/15 14:28:33;;;;;;;4.32;1.73;;;;;;;;;;4979636;28;20053;-76
2023/07/15 14:30:59;;;;;;;4.32;1.55;;;;;;;;;;4988154;28;20053;-75
2023/07/15 14:33:25;;;;;;;2.90;1.40;;;;;;;;;;4988242;28;20129;-75
2023/07/15 14:35:51;;;;;;;2.00;1.42;;;;;;;;;;4988357;28;20488;-75
2023/07/15 14:38:17;;;;;;;3.65;1.48;;;;;;;;;;4981476;28;20418;-78
2023/07/15 14:40:43;;;;;;;6.43;3.13;;;;;;;;;;4988139;28;20033;-77